Griffith, Mississippi
Current Conditions -  °F | °C
As of 4:35 PM on Thursday 23 Oct 2014 (Local Time) from KSTF Reporting Station
Clear Clear  
Wind Chill: 63°   Ceiling: Unl
Heat Index: 63°   Visibility: 10mi
Dew Point: 46°   Wind: 0mph
Humidity: 55%   Direction: NA
Pressure: 30.1"   Gusts: NA
Location:  33.6258°N, 88.8428°W
Report Text: KSTF 232135Z AUTO 00000KT 10SM CLR 17/08 A3010 RMK AO2
Loading
Personal Weather Stations






























Interactive Weather Map
Tropical Storm Tracking
New forecast layout! Learn more

10-Day Weather Forecast

Advertisements
Track Severe Weather on mobile